Marsh Hill, Pennsylvania
Current Conditions -  °F | °C
As of 6:54 AM on Friday 28 Nov 2014 (Local Time) from KIPT Reporting Station
Broken Clouds Broken Clouds  
Wind Chill: -5°   Ceiling: 7000
Heat Index: -2°   Visibility: 10mi
Dew Point: -8°   Wind: 6mph
Humidity: 64%   Direction: 280°W
Pressure: 30.21"   Gusts: NA
Location:  41.4223°N, 76.9976°W
Report Text: KIPT 281154Z 28005KT 10SM BKN070 M02/M08 A3021 RMK AO2 SNE07 SLP236 P0000 60000 70003 T10171078 10006 21017 53028
Loading
Personal Weather Stations






























Interactive Weather Map New forecast layout! Learn more

10-Day Weather Forecast

Advertisements
Track Severe Weather on mobile